sensor_id;sensor_type;location;lat;lon;timestamp;temperature;humidity
14101;DHT22;7127;49.372;8.166;2022-10-26T00:00:14;17.60;62.60
14101;DHT22;7127;49.372;8.166;2022-10-26T00:02:43;17.60;62.60
14101;DHT22;7127;49.372;8.166;2022-10-26T00:05:10;17.60;62.70
14101;DHT22;7127;49.372;8.166;2022-10-26T00:07:37;17.60;62.60
14101;DHT22;7127;49.372;8.166;2022-10-26T00:10:05;17.60;62.60
14101;DHT22;7127;49.372;8.166;2022-10-26T00:12:32;17.70;62.70
14101;DHT22;7127;49.372;8.166;2022-10-26T00:14:59;17.60;62.60
14101;DHT22;7127;49.372;8.166;2022-10-26T00:17:26;17.60;62.60
14101;DHT22;7127;49.372;8.166;2022-10-26T00:19:54;17.60;62.60
14101;DHT22;7127;49.372;8.166;2022-10-26T00:22:22;17.60;62.60
14101;DHT22;7127;49.372;8.166;2022-10-26T00:24:49;17.60;62.60
14101;DHT22;7127;49.372;8.166;2022-10-26T00:27:16;17.70;62.70
14101;DHT22;7127;49.372;8.166;2022-10-26T00:29:43;17.60;62.50
14101;DHT22;7127;49.372;8.166;2022-10-26T00:32:10;17.60;62.50
14101;DHT22;7127;49.372;8.166;2022-10-26T00:34:37;17.60;62.50
14101;DHT22;7127;49.372;8.166;2022-10-26T00:37:05;17.60;62.60
14101;DHT22;7127;49.372;8.166;2022-10-26T00:39:32;17.60;62.60
14101;DHT22;7127;49.372;8.166;2022-10-26T00:41:59;17.60;62.70
14101;DHT22;7127;49.372;8.166;2022-10-26T00:44:55;17.60;62.70
14101;DHT22;7127;49.372;8.166;2022-10-26T00:47:31;17.60;63.00
14101;DHT22;7127;49.372;8.166;2022-10-26T00:50:03;17.60;62.80
14101;DHT22;7127;49.372;8.166;2022-10-26T00:52:34;17.60;62.70
14101;DHT22;7127;49.372;8.166;2022-10-26T00:55:03;17.70;62.90
14101;DHT22;7127;49.372;8.166;2022-10-26T00:57:31;17.60;62.70
14101;DHT22;7127;49.372;8.166;2022-10-26T00:59:58;17.60;62.70
14101;DHT22;7127;49.372;8.166;2022-10-26T01:02:26;17.60;62.70
14101;DHT22;7127;49.372;8.166;2022-10-26T01:04:53;17.70;62.90
14101;DHT22;7127;49.372;8.166;2022-10-26T01:07:21;17.60;62.80
14101;DHT22;7127;49.372;8.166;2022-10-26T01:09:50;17.60;62.80
14101;DHT22;7127;49.372;8.166;2022-10-26T01:12:18;17.60;62.90
14101;DHT22;7127;49.372;8.166;2022-10-26T01:14:45;17.60;62.90
14101;DHT22;7127;49.372;8.166;2022-10-26T01:17:32;17.60;62.90
14101;DHT22;7127;49.372;8.166;2022-10-26T01:20:38;17.70;63.10
14101;DHT22;7127;49.372;8.166;2022-10-26T01:23:15;17.70;63.20
14101;DHT22;7127;49.372;8.166;2022-10-26T01:26:07;17.70;63.00
14101;DHT22;7127;49.372;8.166;2022-10-26T01:29:05;17.70;63.00
14101;DHT22;7127;49.372;8.166;2022-10-26T01:31:40;17.70;62.90
14101;DHT22;7127;49.372;8.166;2022-10-26T01:34:11;17.70;62.90
14101;DHT22;7127;49.372;8.166;2022-10-26T01:36:42;17.70;62.80
14101;DHT22;7127;49.372;8.166;2022-10-26T01:39:15;17.70;62.80
14101;DHT22;7127;49.372;8.166;2022-10-26T01:41:45;17.70;62.90
14101;DHT22;7127;49.372;8.166;2022-10-26T01:44:15;17.70;62.80
14101;DHT22;7127;49.372;8.166;2022-10-26T01:46:47;17.70;62.80
14101;DHT22;7127;49.372;8.166;2022-10-26T01:49:19;17.70;62.80
14101;DHT22;7127;49.372;8.166;2022-10-26T01:51:48;17.70;62.70
14101;DHT22;7127;49.372;8.166;2022-10-26T01:54:16;17.70;62.70
14101;DHT22;7127;49.372;8.166;2022-10-26T01:56:45;17.70;62.70
14101;DHT22;7127;49.372;8.166;2022-10-26T01:59:23;17.70;62.70
14101;DHT22;7127;49.372;8.166;2022-10-26T02:02:27;17.70;62.80
14101;DHT22;7127;49.372;8.166;2022-10-26T02:05:23;17.70;63.00
14101;DHT22;7127;49.372;8.166;2022-10-26T02:07:57;17.70;62.90
14101;DHT22;7127;49.372;8.166;2022-10-26T02:10:36;17.80;62.80
14101;DHT22;7127;49.372;8.166;2022-10-26T02:13:12;17.70;62.60
14101;DHT22;7127;49.372;8.166;2022-10-26T02:15:47;17.70;62.70
14101;DHT22;7127;49.372;8.166;2022-10-26T02:18:23;17.70;62.70
14101;DHT22;7127;49.372;8.166;2022-10-26T02:20:58;17.70;62.80
14101;DHT22;7127;49.372;8.166;2022-10-26T02:23:27;17.70;62.70
14101;DHT22;7127;49.372;8.166;2022-10-26T02:25:58;17.70;62.70
14101;DHT22;7127;49.372;8.166;2022-10-26T02:28:30;17.70;62.70
14101;DHT22;7127;49.372;8.166;2022-10-26T02:31:00;17.70;62.70
14101;DHT22;7127;49.372;8.166;2022-10-26T02:33:32;17.70;62.70
14101;DHT22;7127;49.372;8.166;2022-10-26T02:36:03;17.70;63.60
14101;DHT22;7127;49.372;8.166;2022-10-26T02:38:32;17.70;62.80
14101;DHT22;7127;49.372;8.166;2022-10-26T02:41:01;17.70;62.90
14101;DHT22;7127;49.372;8.166;2022-10-26T02:43:29;17.70;62.90
14101;DHT22;7127;49.372;8.166;2022-10-26T02:46:03;17.70;63.00
14101;DHT22;7127;49.372;8.166;2022-10-26T02:48:34;17.70;63.00
14101;DHT22;7127;49.372;8.166;2022-10-26T02:51:07;17.70;63.00
14101;DHT22;7127;49.372;8.166;2022-10-26T02:53:41;17.70;63.10
14101;DHT22;7127;49.372;8.166;2022-10-26T02:56:16;17.70;63.10
14101;DHT22;7127;49.372;8.166;2022-10-26T02:58:47;17.70;63.30
14101;DHT22;7127;49.372;8.166;2022-10-26T03:01:16;17.70;63.00
14101;DHT22;7127;49.372;8.166;2022-10-26T03:03:44;17.70;63.00
14101;DHT22;7127;49.372;8.166;2022-10-26T03:06:11;17.70;63.00
14101;DHT22;7127;49.372;8.166;2022-10-26T03:08:38;17.70;63.10
14101;DHT22;7127;49.372;8.166;2022-10-26T03:11:05;17.70;63.10
14101;DHT22;7127;49.372;8.166;2022-10-26T03:13:32;17.70;63.10
14101;DHT22;7127;49.372;8.166;2022-10-26T03:15:59;17.60;63.00
14101;DHT22;7127;49.372;8.166;2022-10-26T03:18:26;17.60;62.90
14101;DHT22;7127;49.372;8.166;2022-10-26T03:20:55;17.60;63.00
14101;DHT22;7127;49.372;8.166;2022-10-26T03:23:22;17.60;63.00
14101;DHT22;7127;49.372;8.166;2022-10-26T03:25:49;17.60;63.10
14101;DHT22;7127;49.372;8.166;2022-10-26T03:28:15;17.60;63.20
14101;DHT22;7127;49.372;8.166;2022-10-26T03:30:42;17.60;63.20
14101;DHT22;7127;49.372;8.166;2022-10-26T03:33:09;17.60;63.30
14101;DHT22;7127;49.372;8.166;2022-10-26T03:35:36;17.60;63.40
14101;DHT22;7127;49.372;8.166;2022-10-26T03:38:05;17.60;63.40
14101;DHT22;7127;49.372;8.166;2022-10-26T03:40:32;17.60;63.50
14101;DHT22;7127;49.372;8.166;2022-10-26T03:43:00;17.60;63.50
14101;DHT22;7127;49.372;8.166;2022-10-26T03:45:27;17.60;63.60
14101;DHT22;7127;49.372;8.166;2022-10-26T03:47:54;17.60;63.50
14101;DHT22;7127;49.372;8.166;2022-10-26T03:50:21;17.60;63.50
14101;DHT22;7127;49.372;8.166;2022-10-26T03:52:49;17.60;63.50
14101;DHT22;7127;49.372;8.166;2022-10-26T03:55:17;17.60;63.50
14101;DHT22;7127;49.372;8.166;2022-10-26T03:57:45;17.60;63.50
14101;DHT22;7127;49.372;8.166;2022-10-26T04:00:13;17.60;63.50
14101;DHT22;7127;49.372;8.166;2022-10-26T04:02:41;17.60;63.40
14101;DHT22;7127;49.372;8.166;2022-10-26T04:05:08;17.60;63.30
14101;DHT22;7127;49.372;8.166;2022-10-26T04:07:35;17.60;63.30
14101;DHT22;7127;49.372;8.166;2022-10-26T04:10:03;17.60;63.20
14101;DHT22;7127;49.372;8.166;2022-10-26T04:12:35;17.60;63.30
14101;DHT22;7127;49.372;8.166;2022-10-26T04:15:02;17.50;63.10
14101;DHT22;7127;49.372;8.166;2022-10-26T04:17:31;17.50;63.10
14101;DHT22;7127;49.372;8.166;2022-10-26T04:19:58;17.50;63.20
14101;DHT22;7127;49.372;8.166;2022-10-26T04:22:25;17.50;63.10
14101;DHT22;7127;49.372;8.166;2022-10-26T04:24:52;17.50;63.00
14101;DHT22;7127;49.372;8.166;2022-10-26T04:27:19;17.40;63.00
14101;DHT22;7127;49.372;8.166;2022-10-26T04:29:47;17.40;63.00
14101;DHT22;7127;49.372;8.166;2022-10-26T04:32:14;17.40;63.10
14101;DHT22;7127;49.372;8.166;2022-10-26T04:34:41;17.40;63.10
14101;DHT22;7127;49.372;8.166;2022-10-26T04:37:08;17.30;62.90
14101;DHT22;7127;49.372;8.166;2022-10-26T04:39:35;17.30;63.10
14101;DHT22;7127;49.372;8.166;2022-10-26T04:42:02;17.30;63.20
14101;DHT22;7127;49.372;8.166;2022-10-26T04:44:29;17.30;63.30
14101;DHT22;7127;49.372;8.166;2022-10-26T04:46:57;17.30;63.30
14101;DHT22;7127;49.372;8.166;2022-10-26T04:49:24;17.30;63.40
14101;DHT22;7127;49.372;8.166;2022-10-26T04:51:51;17.30;63.50
14101;DHT22;7127;49.372;8.166;2022-10-26T04:54:18;17.30;63.60
14101;DHT22;7127;49.372;8.166;2022-10-26T04:56:46;17.30;63.60
14101;DHT22;7127;49.372;8.166;2022-10-26T04:59:13;17.20;63.60
14101;DHT22;7127;49.372;8.166;2022-10-26T05:01:40;17.30;63.70
14101;DHT22;7127;49.372;8.166;2022-10-26T05:04:08;17.30;63.80
14101;DHT22;7127;49.372;8.166;2022-10-26T05:06:35;17.30;63.80
14101;DHT22;7127;49.372;8.166;2022-10-26T05:09:02;17.30;63.70
14101;DHT22;7127;49.372;8.166;2022-10-26T05:11:29;17.30;63.70
14101;DHT22;7127;49.372;8.166;2022-10-26T05:13:56;17.30;63.80
14101;DHT22;7127;49.372;8.166;2022-10-26T05:16:23;17.30;63.80
14101;DHT22;7127;49.372;8.166;2022-10-26T05:18:50;17.40;63.90
14101;DHT22;7127;49.372;8.166;2022-10-26T05:21:18;17.30;63.80
14101;DHT22;7127;49.372;8.166;2022-10-26T05:23:48;17.30;63.70
14101;DHT22;7127;49.372;8.166;2022-10-26T05:26:17;17.30;63.80
14101;DHT22;7127;49.372;8.166;2022-10-26T05:28:44;17.30;63.80
14101;DHT22;7127;49.372;8.166;2022-10-26T05:31:11;17.30;63.80
14101;DHT22;7127;49.372;8.166;2022-10-26T05:33:38;17.30;63.70
14101;DHT22;7127;49.372;8.166;2022-10-26T05:36:05;17.30;63.70
14101;DHT22;7127;49.372;8.166;2022-10-26T05:38:34;17.30;63.70
14101;DHT22;7127;49.372;8.166;2022-10-26T05:41:01;17.30;63.70
14101;DHT22;7127;49.372;8.166;2022-10-26T05:43:28;17.30;63.70
14101;DHT22;7127;49.372;8.166;2022-10-26T05:45:55;17.30;63.80
14101;DHT22;7127;49.372;8.166;2022-10-26T05:48:22;17.30;63.80
14101;DHT22;7127;49.372;8.166;2022-10-26T05:50:49;17.30;63.70
14101;DHT22;7127;49.372;8.166;2022-10-26T05:53:16;17.30;63.80
14101;DHT22;7127;49.372;8.166;2022-10-26T05:55:45;17.30;63.80
14101;DHT22;7127;49.372;8.166;2022-10-26T05:58:13;17.20;63.90
14101;DHT22;7127;49.372;8.166;2022-10-26T06:00:47;17.30;64.00
14101;DHT22;7127;49.372;8.166;2022-10-26T06:03:30;17.30;64.20
14101;DHT22;7127;49.372;8.166;2022-10-26T06:06:00;17.30;64.10
14101;DHT22;7127;49.372;8.166;2022-10-26T06:08:28;17.20;63.90
14101;DHT22;7127;49.372;8.166;2022-10-26T06:10:57;17.20;64.00
14101;DHT22;7127;49.372;8.166;2022-10-26T06:13:26;17.20;63.90
14101;DHT22;7127;49.372;8.166;2022-10-26T06:16:17;17.20;64.00
14101;DHT22;7127;49.372;8.166;2022-10-26T06:18:51;17.20;64.20
14101;DHT22;7127;49.372;8.166;2022-10-26T06:21:28;17.20;64.20
14101;DHT22;7127;49.372;8.166;2022-10-26T06:24:03;17.20;64.20
14101;DHT22;7127;49.372;8.166;2022-10-26T06:26:40;17.20;64.30
14101;DHT22;7127;49.372;8.166;2022-10-26T06:29:18;17.20;64.40
14101;DHT22;7127;49.372;8.166;2022-10-26T06:31:46;17.20;64.40
14101;DHT22;7127;49.372;8.166;2022-10-26T06:34:20;17.20;64.40
14101;DHT22;7127;49.372;8.166;2022-10-26T06:36:49;17.20;64.60
14101;DHT22;7127;49.372;8.166;2022-10-26T06:39:17;17.20;64.50
14101;DHT22;7127;49.372;8.166;2022-10-26T06:41:46;17.30;64.50
14101;DHT22;7127;49.372;8.166;2022-10-26T06:44:21;17.30;64.50
14101;DHT22;7127;49.372;8.166;2022-10-26T06:46:53;17.30;64.50
14101;DHT22;7127;49.372;8.166;2022-10-26T06:49:29;17.30;64.50
14101;DHT22;7127;49.372;8.166;2022-10-26T06:51:58;17.30;64.50
14101;DHT22;7127;49.372;8.166;2022-10-26T06:54:30;17.30;64.50
14101;DHT22;7127;49.372;8.166;2022-10-26T06:57:03;17.30;64.50
14101;DHT22;7127;49.372;8.166;2022-10-26T06:59:36;17.40;64.70
14101;DHT22;7127;49.372;8.166;2022-10-26T07:02:03;17.30;64.70
14101;DHT22;7127;49.372;8.166;2022-10-26T07:04:30;17.40;64.70
14101;DHT22;7127;49.372;8.166;2022-10-26T07:06:57;17.40;64.80
14101;DHT22;7127;49.372;8.166;2022-10-26T07:09:24;17.40;64.70
14101;DHT22;7127;49.372;8.166;2022-10-26T07:11:51;17.40;64.80
14101;DHT22;7127;49.372;8.166;2022-10-26T07:14:20;17.50;64.90
14101;DHT22;7127;49.372;8.166;2022-10-26T07:16:47;17.50;65.00
14101;DHT22;7127;49.372;8.166;2022-10-26T07:19:13;17.50;65.00
14101;DHT22;7127;49.372;8.166;2022-10-26T07:21:40;17.50;65.00
14101;DHT22;7127;49.372;8.166;2022-10-26T07:24:08;17.50;65.00
14101;DHT22;7127;49.372;8.166;2022-10-26T07:26:35;17.60;65.10
14101;DHT22;7127;49.372;8.166;2022-10-26T07:29:02;17.60;65.20
14101;DHT22;7127;49.372;8.166;2022-10-26T07:31:30;17.60;65.20
14101;DHT22;7127;49.372;8.166;2022-10-26T07:33:57;17.70;65.30
14101;DHT22;7127;49.372;8.166;2022-10-26T07:36:24;17.70;65.20
14101;DHT22;7127;49.372;8.166;2022-10-26T07:38:51;17.70;65.30
14101;DHT22;7127;49.372;8.166;2022-10-26T07:41:19;17.70;65.30
14101;DHT22;7127;49.372;8.166;2022-10-26T07:43:46;17.80;65.40
14101;DHT22;7127;49.372;8.166;2022-10-26T07:46:15;17.80;65.40
14101;DHT22;7127;49.372;8.166;2022-10-26T07:48:43;17.80;65.40
14101;DHT22;7127;49.372;8.166;2022-10-26T07:51:12;17.90;65.60
14101;DHT22;7127;49.372;8.166;2022-10-26T07:53:39;17.90;65.60
14101;DHT22;7127;49.372;8.166;2022-10-26T07:56:07;17.90;65.60
14101;DHT22;7127;49.372;8.166;2022-10-26T07:58:35;18.00;65.80
14101;DHT22;7127;49.372;8.166;2022-10-26T08:01:05;18.00;65.80
14101;DHT22;7127;49.372;8.166;2022-10-26T08:03:32;18.10;65.90
14101;DHT22;7127;49.372;8.166;2022-10-26T08:06:01;18.10;65.80
14101;DHT22;7127;49.372;8.166;2022-10-26T08:08:29;18.20;65.90
14101;DHT22;7127;49.372;8.166;2022-10-26T08:10:57;18.20;65.90
14101;DHT22;7127;49.372;8.166;2022-10-26T08:13:24;18.20;65.80
14101;DHT22;7127;49.372;8.166;2022-10-26T08:15:55;18.30;65.80
14101;DHT22;7127;49.372;8.166;2022-10-26T08:18:23;18.30;65.80
14101;DHT22;7127;49.372;8.166;2022-10-26T08:20:50;18.30;65.70
14101;DHT22;7127;49.372;8.166;2022-10-26T08:23:18;18.30;65.70
14101;DHT22;7127;49.372;8.166;2022-10-26T08:25:45;18.40;65.80
14101;DHT22;7127;49.372;8.166;2022-10-26T08:28:13;18.40;65.80
14101;DHT22;7127;49.372;8.166;2022-10-26T08:30:40;18.40;65.90
14101;DHT22;7127;49.372;8.166;2022-10-26T08:33:08;18.40;65.90
14101;DHT22;7127;49.372;8.166;2022-10-26T08:35:36;18.50;66.00
14101;DHT22;7127;49.372;8.166;2022-10-26T08:38:03;18.50;66.00
14101;DHT22;7127;49.372;8.166;2022-10-26T08:40:34;18.50;66.10
14101;DHT22;7127;49.372;8.166;2022-10-26T08:43:11;18.60;66.20
14101;DHT22;7127;49.372;8.166;2022-10-26T08:45:45;18.50;66.20
14101;DHT22;7127;49.372;8.166;2022-10-26T08:48:16;18.70;66.40
14101;DHT22;7127;49.372;8.166;2022-10-26T08:50:47;18.80;66.30
14101;DHT22;7127;49.372;8.166;2022-10-26T08:53:19;18.80;66.20
14101;DHT22;7127;49.372;8.166;2022-10-26T08:55:53;18.80;66.20
14101;DHT22;7127;49.372;8.166;2022-10-26T08:58:23;18.90;66.20
14101;DHT22;7127;49.372;8.166;2022-10-26T09:00:52;18.90;66.20
14101;DHT22;7127;49.372;8.166;2022-10-26T09:03:19;19.00;66.20
14101;DHT22;7127;49.372;8.166;2022-10-26T09:05:59;19.00;66.10
14101;DHT22;7127;49.372;8.166;2022-10-26T09:08:36;19.10;66.10
14101;DHT22;7127;49.372;8.166;2022-10-26T09:11:18;19.10;66.00
14101;DHT22;7127;49.372;8.166;2022-10-26T09:13:58;19.20;66.10
14101;DHT22;7127;49.372;8.166;2022-10-26T09:16:34;19.20;66.10
14101;DHT22;7127;49.372;8.166;2022-10-26T09:19:27;19.30;66.10
14101;DHT22;7127;49.372;8.166;2022-10-26T09:22:05;19.30;66.10
14101;DHT22;7127;49.372;8.166;2022-10-26T09:24:35;19.30;66.00
14101;DHT22;7127;49.372;8.166;2022-10-26T09:27:11;19.40;66.10
14101;DHT22;7127;49.372;8.166;2022-10-26T09:29:42;19.40;66.10
14101;DHT22;7127;49.372;8.166;2022-10-26T09:32:14;19.50;66.00
14101;DHT22;7127;49.372;8.166;2022-10-26T09:34:46;19.50;65.90
14101;DHT22;7127;49.372;8.166;2022-10-26T09:37:15;19.60;65.80
14101;DHT22;7127;49.372;8.166;2022-10-26T09:39:50;19.50;65.60
14101;DHT22;7127;49.372;8.166;2022-10-26T09:42:24;19.60;65.60
14101;DHT22;7127;49.372;8.166;2022-10-26T09:44:56;19.60;65.50
14101;DHT22;7127;49.372;8.166;2022-10-26T09:47:32;19.70;65.50
14101;DHT22;7127;49.372;8.166;2022-10-26T09:50:17;19.80;65.50
14101;DHT22;7127;49.372;8.166;2022-10-26T09:52:46;19.80;65.40
14101;DHT22;7127;49.372;8.166;2022-10-26T09:55:13;19.80;65.40
14101;DHT22;7127;49.372;8.166;2022-10-26T09:57:44;19.90;65.50
14101;DHT22;7127;49.372;8.166;2022-10-26T10:00:13;19.90;65.40
14101;DHT22;7127;49.372;8.166;2022-10-26T10:02:43;20.00;65.60
14101;DHT22;7127;49.372;8.166;2022-10-26T10:05:22;20.00;65.60
14101;DHT22;7127;49.372;8.166;2022-10-26T10:07:49;20.10;65.50
14101;DHT22;7127;49.372;8.166;2022-10-26T10:10:18;20.20;65.60
14101;DHT22;7127;49.372;8.166;2022-10-26T10:12:49;20.20;65.50
14101;DHT22;7127;49.372;8.166;2022-10-26T10:15:19;20.30;65.40
14101;DHT22;7127;49.372;8.166;2022-10-26T10:17:48;20.40;65.50
14101;DHT22;7127;49.372;8.166;2022-10-26T10:20:20;20.50;65.60
14101;DHT22;7127;49.372;8.166;2022-10-26T10:22:56;20.50;65.50
14101;DHT22;7127;49.372;8.166;2022-10-26T10:25:32;20.60;65.50
14101;DHT22;7127;49.372;8.166;2022-10-26T10:28:02;20.70;65.50
14101;DHT22;7127;49.372;8.166;2022-10-26T10:30:31;20.80;65.20
14101;DHT22;7127;49.372;8.166;2022-10-26T10:33:06;20.90;65.10
14101;DHT22;7127;49.372;8.166;2022-10-26T10:35:33;21.00;64.90
14101;DHT22;7127;49.372;8.166;2022-10-26T10:38:01;21.00;65.00
14101;DHT22;7127;49.372;8.166;2022-10-26T10:40:30;21.10;64.70
14101;DHT22;7127;49.372;8.166;2022-10-26T10:43:09;21.20;64.50
14101;DHT22;7127;49.372;8.166;2022-10-26T10:45:38;21.30;64.00
14101;DHT22;7127;49.372;8.166;2022-10-26T10:48:14;21.30;64.00
14101;DHT22;7127;49.372;8.166;2022-10-26T10:50:51;21.40;63.60
14101;DHT22;7127;49.372;8.166;2022-10-26T10:53:21;21.50;63.40
14101;DHT22;7127;49.372;8.166;2022-10-26T10:56:11;21.50;63.20
14101;DHT22;7127;49.372;8.166;2022-10-26T10:58:46;21.60;62.90
14101;DHT22;7127;49.372;8.166;2022-10-26T11:01:20;21.60;63.10
14101;DHT22;7127;49.372;8.166;2022-10-26T11:04:07;21.70;62.90
14101;DHT22;7127;49.372;8.166;2022-10-26T11:06:40;21.80;62.80
14101;DHT22;7127;49.372;8.166;2022-10-26T11:09:11;21.90;62.70
14101;DHT22;7127;49.372;8.166;2022-10-26T11:11:42;21.90;62.60
14101;DHT22;7127;49.372;8.166;2022-10-26T11:14:15;22.00;62.40
14101;DHT22;7127;49.372;8.166;2022-10-26T11:16:46;22.00;62.10
14101;DHT22;7127;49.372;8.166;2022-10-26T11:19:18;22.10;62.10
14101;DHT22;7127;49.372;8.166;2022-10-26T11:21:49;22.10;61.40
14101;DHT22;7127;49.372;8.166;2022-10-26T11:24:23;22.10;61.50
14101;DHT22;7127;49.372;8.166;2022-10-26T11:26:54;22.20;61.50
14101;DHT22;7127;49.372;8.166;2022-10-26T11:29:30;22.30;61.20
14101;DHT22;7127;49.372;8.166;2022-10-26T11:32:05;22.30;61.00
14101;DHT22;7127;49.372;8.166;2022-10-26T11:34:36;22.30;60.70
14101;DHT22;7127;49.372;8.166;2022-10-26T11:37:10;22.40;60.90
14101;DHT22;7127;49.372;8.166;2022-10-26T11:39:43;22.50;60.90
14101;DHT22;7127;49.372;8.166;2022-10-26T11:42:19;22.50;60.70
14101;DHT22;7127;49.372;8.166;2022-10-26T11:44:54;22.60;60.50
14101;DHT22;7127;49.372;8.166;2022-10-26T11:47:27;22.60;60.60
14101;DHT22;7127;49.372;8.166;2022-10-26T11:50:03;22.70;60.60
14101;DHT22;7127;49.372;8.166;2022-10-26T11:52:36;22.70;60.10
14101;DHT22;7127;49.372;8.166;2022-10-26T11:55:08;22.70;60.10
14101;DHT22;7127;49.372;8.166;2022-10-26T11:57:37;22.80;60.20
14101;DHT22;7127;49.372;8.166;2022-10-26T12:00:08;22.80;59.80
14101;DHT22;7127;49.372;8.166;2022-10-26T12:02:41;22.80;59.50
14101;DHT22;7127;49.372;8.166;2022-10-26T12:05:21;22.90;59.80
14101;DHT22;7127;49.372;8.166;2022-10-26T12:07:51;22.90;59.50
14101;DHT22;7127;49.372;8.166;2022-10-26T12:10:27;22.90;59.70
14101;DHT22;7127;49.372;8.166;2022-10-26T12:13:02;22.90;59.50
14101;DHT22;7127;49.372;8.166;2022-10-26T12:15:38;22.90;60.10
14101;DHT22;7127;49.372;8.166;2022-10-26T12:18:15;23.00;59.50
14101;DHT22;7127;49.372;8.166;2022-10-26T12:20:56;23.00;59.40
14101;DHT22;7127;49.372;8.166;2022-10-26T12:23:28;23.00;59.20
14101;DHT22;7127;49.372;8.166;2022-10-26T12:29:32;23.10;58.80
14101;DHT22;7127;49.372;8.166;2022-10-26T12:32:04;23.10;58.60
14101;DHT22;7127;49.372;8.166;2022-10-26T12:35:02;23.10;59.20
14101;DHT22;7127;49.372;8.166;2022-10-26T12:37:32;23.20;59.00
14101;DHT22;7127;49.372;8.166;2022-10-26T12:40:37;23.20;58.90
14101;DHT22;7127;49.372;8.166;2022-10-26T12:43:34;23.20;58.50
14101;DHT22;7127;49.372;8.166;2022-10-26T12:52:45;23.20;58.20
14101;DHT22;7127;49.372;8.166;2022-10-26T12:55:41;23.30;58.70
14101;DHT22;7127;49.372;8.166;2022-10-26T12:58:35;23.30;57.60
14101;DHT22;7127;49.372;8.166;2022-10-26T13:01:33;23.30;58.50
14101;DHT22;7127;49.372;8.166;2022-10-26T13:04:12;23.30;58.00
14101;DHT22;7127;49.372;8.166;2022-10-26T13:06:47;23.30;58.20
14101;DHT22;7127;49.372;8.166;2022-10-26T13:09:22;23.30;58.20
14101;DHT22;7127;49.372;8.166;2022-10-26T13:11:53;23.30;58.10
14101;DHT22;7127;49.372;8.166;2022-10-26T13:14:22;23.40;58.30
14101;DHT22;7127;49.372;8.166;2022-10-26T13:16:51;23.40;58.20
14101;DHT22;7127;49.372;8.166;2022-10-26T13:19:26;23.40;58.20
14101;DHT22;7127;49.372;8.166;2022-10-26T13:21:58;23.40;57.70
14101;DHT22;7127;49.372;8.166;2022-10-26T13:24:30;23.40;58.00
14101;DHT22;7127;49.372;8.166;2022-10-26T13:27:22;23.50;57.80
14101;DHT22;7127;49.372;8.166;2022-10-26T13:33:22;23.50;56.70
14101;DHT22;7127;49.372;8.166;2022-10-26T13:35:57;23.50;57.40
14101;DHT22;7127;49.372;8.166;2022-10-26T13:38:31;23.50;57.30
14101;DHT22;7127;49.372;8.166;2022-10-26T13:41:17;23.50;57.30
14101;DHT22;7127;49.372;8.166;2022-10-26T13:43:49;23.50;56.80
14101;DHT22;7127;49.372;8.166;2022-10-26T13:46:26;23.50;57.20
14101;DHT22;7127;49.372;8.166;2022-10-26T13:48:58;23.50;57.00
14101;DHT22;7127;49.372;8.166;2022-10-26T13:51:36;23.50;57.10
14101;DHT22;7127;49.372;8.166;2022-10-26T13:54:15;23.50;57.00
14101;DHT22;7127;49.372;8.166;2022-10-26T13:57:10;23.50;57.00
14101;DHT22;7127;49.372;8.166;2022-10-26T13:59:42;23.50;56.90
14101;DHT22;7127;49.372;8.166;2022-10-26T14:02:22;23.50;57.10
14101;DHT22;7127;49.372;8.166;2022-10-26T14:04:58;23.50;56.70
14101;DHT22;7127;49.372;8.166;2022-10-26T14:07:30;23.50;57.00
14101;DHT22;7127;49.372;8.166;2022-10-26T14:10:00;23.40;56.80
14101;DHT22;7127;49.372;8.166;2022-10-26T14:12:29;23.40;56.90
14101;DHT22;7127;49.372;8.166;2022-10-26T14:15:02;23.40;56.80
14101;DHT22;7127;49.372;8.166;2022-10-26T14:17:29;23.40;56.70
14101;DHT22;7127;49.372;8.166;2022-10-26T14:19:56;23.30;56.70
14101;DHT22;7127;49.372;8.166;2022-10-26T14:22:25;23.30;56.70
14101;DHT22;7127;49.372;8.166;2022-10-26T14:24:54;23.40;56.70
14101;DHT22;7127;49.372;8.166;2022-10-26T14:27:23;23.30;56.70
14101;DHT22;7127;49.372;8.166;2022-10-26T14:29:53;23.40;56.70
14101;DHT22;7127;49.372;8.166;2022-10-26T14:32:26;23.30;56.50
14101;DHT22;7127;49.372;8.166;2022-10-26T14:34:54;23.40;56.40
14101;DHT22;7127;49.372;8.166;2022-10-26T14:37:32;23.30;56.40
14101;DHT22;7127;49.372;8.166;2022-10-26T14:40:03;23.30;56.00
14101;DHT22;7127;49.372;8.166;2022-10-26T14:42:32;23.30;56.30
14101;DHT22;7127;49.372;8.166;2022-10-26T14:45:02;23.20;56.20
14101;DHT22;7127;49.372;8.166;2022-10-26T14:47:30;23.20;56.30
14101;DHT22;7127;49.372;8.166;2022-10-26T14:49:58;23.20;56.30
14101;DHT22;7127;49.372;8.166;2022-10-26T14:52:28;23.20;56.30
14101;DHT22;7127;49.372;8.166;2022-10-26T14:54:58;23.20;56.20
14101;DHT22;7127;49.372;8.166;2022-10-26T14:57:33;23.20;56.30
14101;DHT22;7127;49.372;8.166;2022-10-26T15:00:10;23.20;56.20
14101;DHT22;7127;49.372;8.166;2022-10-26T15:02:40;23.20;56.20
14101;DHT22;7127;49.372;8.166;2022-10-26T15:05:20;23.10;56.20
14101;DHT22;7127;49.372;8.166;2022-10-26T15:07:47;23.10;56.00
14101;DHT22;7127;49.372;8.166;2022-10-26T15:10:45;23.10;56.20
14101;DHT22;7127;49.372;8.166;2022-10-26T15:13:39;23.10;56.10
14101;DHT22;7127;49.372;8.166;2022-10-26T15:16:14;23.00;55.90
14101;DHT22;7127;49.372;8.166;2022-10-26T15:18:44;23.00;56.20
14101;DHT22;7127;49.372;8.166;2022-10-26T15:21:22;22.90;56.20
14101;DHT22;7127;49.372;8.166;2022-10-26T15:23:50;22.90;56.10
14101;DHT22;7127;49.372;8.166;2022-10-26T15:26:17;22.90;56.30
14101;DHT22;7127;49.372;8.166;2022-10-26T15:28:44;22.90;56.30
14101;DHT22;7127;49.372;8.166;2022-10-26T15:31:32;22.80;56.30
14101;DHT22;7127;49.372;8.166;2022-10-26T15:34:12;22.80;56.10
14101;DHT22;7127;49.372;8.166;2022-10-26T15:36:41;22.80;56.20
14101;DHT22;7127;49.372;8.166;2022-10-26T15:39:09;22.80;56.40
14101;DHT22;7127;49.372;8.166;2022-10-26T15:41:37;22.70;56.30
14101;DHT22;7127;49.372;8.166;2022-10-26T15:44:12;22.60;56.90
14101;DHT22;7127;49.372;8.166;2022-10-26T15:46:42;22.60;56.40
14101;DHT22;7127;49.372;8.166;2022-10-26T15:49:15;22.60;56.40
14101;DHT22;7127;49.372;8.166;2022-10-26T15:51:44;22.50;56.40
14101;DHT22;7127;49.372;8.166;2022-10-26T15:54:12;22.50;56.50
14101;DHT22;7127;49.372;8.166;2022-10-26T15:56:40;22.40;56.50
14101;DHT22;7127;49.372;8.166;2022-10-26T15:59:13;22.40;56.50
14101;DHT22;7127;49.372;8.166;2022-10-26T16:01:42;22.40;56.50
14101;DHT22;7127;49.372;8.166;2022-10-26T16:04:09;22.30;56.50
14101;DHT22;7127;49.372;8.166;2022-10-26T16:06:39;22.30;56.50
14101;DHT22;7127;49.372;8.166;2022-10-26T16:09:09;22.30;56.60
14101;DHT22;7127;49.372;8.166;2022-10-26T16:11:37;22.20;56.60
14101;DHT22;7127;49.372;8.166;2022-10-26T16:14:04;22.10;56.60
14101;DHT22;7127;49.372;8.166;2022-10-26T16:16:31;22.10;56.70
14101;DHT22;7127;49.372;8.166;2022-10-26T16:18:59;22.00;56.60
14101;DHT22;7127;49.372;8.166;2022-10-26T16:21:27;22.00;56.60
14101;DHT22;7127;49.372;8.166;2022-10-26T16:23:55;21.90;56.70
14101;DHT22;7127;49.372;8.166;2022-10-26T16:26:23;21.90;56.70